sensor_id;sensor_type;location;lat;lon;timestamp;pressure;altitude;pressure_sealevel;temperature;humidity
33625;BME280;19962;47.820;1.930;2023-11-21T00:01:25;100274.94;;;13.23;95.02
33625;BME280;19962;47.820;1.930;2023-11-21T00:03:51;100270.50;;;13.22;94.99
33625;BME280;19962;47.820;1.930;2023-11-21T00:06:20;100267.75;;;13.22;94.98
33625;BME280;19962;47.820;1.930;2023-11-21T00:08:46;100271.84;;;13.19;95.13
33625;BME280;19962;47.820;1.930;2023-11-21T00:11:12;100269.34;;;13.18;95.22
33625;BME280;19962;47.820;1.930;2023-11-21T00:13:39;100271.91;;;13.24;94.88
33625;BME280;19962;47.820;1.930;2023-11-21T00:16:05;100266.66;;;13.23;94.64
33625;BME280;19962;47.820;1.930;2023-11-21T00:18:31;100270.25;;;13.23;94.61
33625;BME280;19962;47.820;1.930;2023-11-21T00:20:57;100264.94;;;13.17;95.15
33625;BME280;19962;47.820;1.930;2023-11-21T00:23:27;100266.03;;;13.16;95.17
33625;BME280;19962;47.820;1.930;2023-11-21T00:25:53;100268.47;;;13.12;94.93
33625;BME280;19962;47.820;1.930;2023-11-21T00:28:19;100266.59;;;13.18;95.14
33625;BME280;19962;47.820;1.930;2023-11-21T00:30:46;100265.00;;;13.22;94.79
33625;BME280;19962;47.820;1.930;2023-11-21T00:33:12;100256.75;;;13.22;94.88
33625;BME280;19962;47.820;1.930;2023-11-21T00:35:38;100259.00;;;13.25;94.80
33625;BME280;19962;47.820;1.930;2023-11-21T00:38:04;100259.31;;;13.28;94.67
33625;BME280;19962;47.820;1.930;2023-11-21T00:40:30;100257.84;;;13.21;94.59
33625;BME280;19962;47.820;1.930;2023-11-21T00:42:56;100257.84;;;13.21;94.65
33625;BME280;19962;47.820;1.930;2023-11-21T00:45:22;100256.19;;;13.20;94.58
33625;BME280;19962;47.820;1.930;2023-11-21T00:47:48;100252.88;;;13.23;94.57
33625;BME280;19962;47.820;1.930;2023-11-21T00:50:14;100265.59;;;13.24;94.90
33625;BME280;19962;47.820;1.930;2023-11-21T00:52:41;100266.66;;;13.23;94.92
33625;BME280;19962;47.820;1.930;2023-11-21T00:55:08;100277.06;;;13.16;94.87
33625;BME280;19962;47.820;1.930;2023-11-21T00:57:35;100263.84;;;13.18;95.04
33625;BME280;19962;47.820;1.930;2023-11-21T01:00:01;100259.75;;;13.20;94.80
33625;BME280;19962;47.820;1.930;2023-11-21T01:02:28;100267.19;;;13.20;94.87
33625;BME280;19962;47.820;1.930;2023-11-21T01:04:54;100274.94;;;13.23;94.67
33625;BME280;19962;47.820;1.930;2023-11-21T01:07:20;100270.25;;;13.23;94.91
33625;BME280;19962;47.820;1.930;2023-11-21T01:09:47;100262.84;;;13.24;94.56
33625;BME280;19962;47.820;1.930;2023-11-21T01:12:13;100264.75;;;13.23;94.76
33625;BME280;19962;47.820;1.930;2023-11-21T01:14:39;100261.16;;;13.23;94.79
33625;BME280;19962;47.820;1.930;2023-11-21T01:17:05;100270.75;;;13.20;94.82
33625;BME280;19962;47.820;1.930;2023-11-21T01:19:31;100275.09;;;13.16;95.03
33625;BME280;19962;47.820;1.930;2023-11-21T01:21:57;100272.03;;;13.13;94.95
33625;BME280;19962;47.820;1.930;2023-11-21T01:24:24;100269.47;;;13.06;95.34
33625;BME280;19962;47.820;1.930;2023-11-21T01:26:50;100277.66;;;13.01;95.12
33625;BME280;19962;47.820;1.930;2023-11-21T01:29:16;100278.44;;;12.97;95.40
33625;BME280;19962;47.820;1.930;2023-11-21T01:31:42;100286.81;;;12.90;95.28
33625;BME280;19962;47.820;1.930;2023-11-21T01:34:08;100280.41;;;12.85;95.84
33625;BME280;19962;47.820;1.930;2023-11-21T01:36:34;100289.91;;;12.77;95.72
33625;BME280;19962;47.820;1.930;2023-11-21T01:39:01;100283.56;;;12.77;95.67
33625;BME280;19962;47.820;1.930;2023-11-21T01:41:30;100283.25;;;12.73;95.60
33625;BME280;19962;47.820;1.930;2023-11-21T01:43:56;100287.50;;;12.64;96.06
33625;BME280;19962;47.820;1.930;2023-11-21T01:46:23;100292.06;;;12.59;96.35
33625;BME280;19962;47.820;1.930;2023-11-21T01:48:50;100290.41;;;12.58;96.06
33625;BME280;19962;47.820;1.930;2023-11-21T01:51:17;100297.00;;;12.57;96.00
33625;BME280;19962;47.820;1.930;2023-11-21T01:53:44;100290.56;;;12.51;95.97
33625;BME280;19962;47.820;1.930;2023-11-21T01:56:13;100293.06;;;12.53;95.58
33625;BME280;19962;47.820;1.930;2023-11-21T01:58:40;100287.75;;;12.46;95.63
33625;BME280;19962;47.820;1.930;2023-11-21T02:01:07;100298.38;;;12.43;95.88
33625;BME280;19962;47.820;1.930;2023-11-21T02:03:33;100285.72;;;12.42;95.63
33625;BME280;19962;47.820;1.930;2023-11-21T02:05:59;100285.38;;;12.38;95.54
33625;BME280;19962;47.820;1.930;2023-11-21T02:08:25;100293.31;;;12.35;95.75
33625;BME280;19962;47.820;1.930;2023-11-21T02:10:52;100293.88;;;12.37;95.90
33625;BME280;19962;47.820;1.930;2023-11-21T02:13:18;100294.50;;;12.39;95.48
33625;BME280;19962;47.820;1.930;2023-11-21T02:15:44;100288.38;;;12.37;95.30
33625;BME280;19962;47.820;1.930;2023-11-21T02:18:11;100292.22;;;12.36;95.36
33625;BME280;19962;47.820;1.930;2023-11-21T02:20:37;100286.56;;;12.42;95.22
33625;BME280;19962;47.820;1.930;2023-11-21T02:23:05;100290.81;;;12.50;94.90
33625;BME280;19962;47.820;1.930;2023-11-21T02:25:32;100297.06;;;12.45;94.55
33625;BME280;19962;47.820;1.930;2023-11-21T02:28:01;100300.00;;;12.39;94.67
33625;BME280;19962;47.820;1.930;2023-11-21T02:30:28;100313.13;;;12.37;95.40
33625;BME280;19962;47.820;1.930;2023-11-21T02:32:55;100313.75;;;12.39;95.38
33625;BME280;19962;47.820;1.930;2023-11-21T02:35:22;100311.09;;;12.44;94.79
33625;BME280;19962;47.820;1.930;2023-11-21T02:37:49;100306.75;;;12.48;94.80
33625;BME280;19962;47.820;1.930;2023-11-21T02:40:15;100311.09;;;12.44;94.81
33625;BME280;19962;47.820;1.930;2023-11-21T02:42:44;100311.91;;;12.44;94.79
33625;BME280;19962;47.820;1.930;2023-11-21T02:45:10;100314.41;;;12.46;94.84
33625;BME280;19962;47.820;1.930;2023-11-21T02:47:40;100313.22;;;12.42;95.08
33625;BME280;19962;47.820;1.930;2023-11-21T02:50:06;100314.81;;;12.38;95.09
33625;BME280;19962;47.820;1.930;2023-11-21T02:52:36;100307.72;;;12.42;95.23
33625;BME280;19962;47.820;1.930;2023-11-21T02:55:03;100315.00;;;12.48;95.05
33625;BME280;19962;47.820;1.930;2023-11-21T02:57:29;100307.56;;;12.48;94.98
33625;BME280;19962;47.820;1.930;2023-11-21T02:59:55;100310.16;;;12.55;95.06
33625;BME280;19962;47.820;1.930;2023-11-21T03:02:22;100307.41;;;12.55;94.67
33625;BME280;19962;47.820;1.930;2023-11-21T03:04:48;100315.41;;;12.56;94.52
33625;BME280;19962;47.820;1.930;2023-11-21T03:07:15;100316.84;;;12.59;94.38
33625;BME280;19962;47.820;1.930;2023-11-21T03:09:41;100310.16;;;12.55;94.72
33625;BME280;19962;47.820;1.930;2023-11-21T03:12:09;100310.91;;;12.50;94.54
33625;BME280;19962;47.820;1.930;2023-11-21T03:14:35;100316.16;;;12.52;94.87
33625;BME280;19962;47.820;1.930;2023-11-21T03:17:01;100311.75;;;12.51;94.79
33625;BME280;19962;47.820;1.930;2023-11-21T03:19:28;100322.16;;;12.49;94.94
33625;BME280;19962;47.820;1.930;2023-11-21T03:21:54;100324.41;;;12.52;94.74
33625;BME280;19962;47.820;1.930;2023-11-21T03:24:20;100323.44;;;12.58;94.67
33625;BME280;19962;47.820;1.930;2023-11-21T03:26:48;100319.84;;;12.57;94.38
33625;BME280;19962;47.820;1.930;2023-11-21T03:29:15;100324.59;;;12.62;94.36
33625;BME280;19962;47.820;1.930;2023-11-21T03:31:41;100319.59;;;12.59;94.59
33625;BME280;19962;47.820;1.930;2023-11-21T03:34:09;100319.69;;;12.64;94.51
33625;BME280;19962;47.820;1.930;2023-11-21T03:36:35;100315.59;;;12.66;94.52
33625;BME280;19962;47.820;1.930;2023-11-21T03:39:02;100318.59;;;12.65;94.08
33625;BME280;19962;47.820;1.930;2023-11-21T03:41:28;100324.09;;;12.65;94.42
33625;BME280;19962;47.820;1.930;2023-11-21T03:43:54;100336.94;;;12.59;94.68
33625;BME280;19962;47.820;1.930;2023-11-21T03:46:20;100343.78;;;12.57;94.96
33625;BME280;19962;47.820;1.930;2023-11-21T03:48:46;100333.19;;;12.65;94.75
33625;BME280;19962;47.820;1.930;2023-11-21T03:51:12;100330.44;;;12.65;94.74
33625;BME280;19962;47.820;1.930;2023-11-21T03:53:38;100340.72;;;12.70;94.60
33625;BME280;19962;47.820;1.930;2023-11-21T03:56:05;100343.47;;;12.70;94.60
33625;BME280;19962;47.820;1.930;2023-11-21T03:58:31;100339.63;;;12.71;94.46
33625;BME280;19962;47.820;1.930;2023-11-21T04:00:57;100342.53;;;12.64;94.86
33625;BME280;19962;47.820;1.930;2023-11-21T04:03:23;100342.53;;;12.64;94.93
33625;BME280;19962;47.820;1.930;2023-11-21T04:05:49;100351.13;;;12.68;94.82
33625;BME280;19962;47.820;1.930;2023-11-21T04:08:15;100346.22;;;12.70;94.63
33625;BME280;19962;47.820;1.930;2023-11-21T04:10:41;100348.78;;;12.76;94.73
33625;BME280;19962;47.820;1.930;2023-11-21T04:13:08;100354.66;;;12.80;94.67
33625;BME280;19962;47.820;1.930;2023-11-21T04:15:34;100360.16;;;12.80;94.99
33625;BME280;19962;47.820;1.930;2023-11-21T04:18:00;100355.13;;;12.77;95.13
33625;BME280;19962;47.820;1.930;2023-11-21T04:20:26;100358.13;;;12.75;95.11
33625;BME280;19962;47.820;1.930;2023-11-21T04:22:53;100357.97;;;12.82;95.30
33625;BME280;19962;47.820;1.930;2023-11-21T04:25:19;100370.06;;;12.81;95.10
33625;BME280;19962;47.820;1.930;2023-11-21T04:27:46;100363.72;;;12.80;95.09
33625;BME280;19962;47.820;1.930;2023-11-21T04:30:12;100369.84;;;12.82;95.31
33625;BME280;19962;47.820;1.930;2023-11-21T04:32:39;100371.66;;;12.77;95.47
33625;BME280;19962;47.820;1.930;2023-11-21T04:35:05;100379.19;;;12.81;95.48
33625;BME280;19962;47.820;1.930;2023-11-21T04:37:32;100391.25;;;12.80;95.43
33625;BME280;19962;47.820;1.930;2023-11-21T04:39:58;100383.25;;;12.79;95.42
33625;BME280;19962;47.820;1.930;2023-11-21T04:42:24;100389.34;;;12.81;95.31
33625;BME280;19962;47.820;1.930;2023-11-21T04:44:50;100392.09;;;12.81;95.45
33625;BME280;19962;47.820;1.930;2023-11-21T04:47:17;100396.50;;;12.82;95.32
33625;BME280;19962;47.820;1.930;2023-11-21T04:49:46;100400.34;;;12.81;95.41
33625;BME280;19962;47.820;1.930;2023-11-21T04:52:15;100402.00;;;12.82;95.53
33625;BME280;19962;47.820;1.930;2023-11-21T04:54:41;100398.53;;;12.86;95.35
33625;BME280;19962;47.820;1.930;2023-11-21T04:57:07;100400.53;;;12.91;95.42
33625;BME280;19962;47.820;1.930;2023-11-21T04:59:34;100395.03;;;12.91;95.30
33625;BME280;19962;47.820;1.930;2023-11-21T05:02:00;100393.56;;;13.00;94.89
33625;BME280;19962;47.820;1.930;2023-11-21T05:04:27;100396.38;;;13.05;94.85
33625;BME280;19962;47.820;1.930;2023-11-21T05:06:53;100397.16;;;13.00;94.67
33625;BME280;19962;47.820;1.930;2023-11-21T05:09:19;100396.56;;;12.98;94.83
33625;BME280;19962;47.820;1.930;2023-11-21T05:11:45;100399.06;;;13.00;95.10
33625;BME280;19962;47.820;1.930;2023-11-21T05:14:11;100404.56;;;13.00;95.39
33625;BME280;19962;47.820;1.930;2023-11-21T05:16:37;100408.41;;;12.99;95.45
33625;BME280;19962;47.820;1.930;2023-11-21T05:19:03;100405.19;;;13.02;95.15
33625;BME280;19962;47.820;1.930;2023-11-21T05:21:31;100400.47;;;13.02;95.56
33625;BME280;19962;47.820;1.930;2023-11-21T05:23:58;100407.94;;;13.02;95.60
33625;BME280;19962;47.820;1.930;2023-11-21T05:26:24;100404.81;;;12.98;95.69
33625;BME280;19962;47.820;1.930;2023-11-21T05:28:50;100409.25;;;12.99;95.87
33625;BME280;19962;47.820;1.930;2023-11-21T05:31:16;100418.09;;;13.01;95.82
33625;BME280;19962;47.820;1.930;2023-11-21T05:33:42;100408.88;;;12.96;95.88
33625;BME280;19962;47.820;1.930;2023-11-21T05:36:09;100418.84;;;12.97;96.04
33625;BME280;19962;47.820;1.930;2023-11-21T05:38:36;100408.41;;;12.99;95.91
33625;BME280;19962;47.820;1.930;2023-11-21T05:41:03;100416.44;;;13.00;96.16
33625;BME280;19962;47.820;1.930;2023-11-21T05:43:31;100410.75;;;13.07;95.77
33625;BME280;19962;47.820;1.930;2023-11-21T05:45:58;100412.44;;;13.08;95.75
33625;BME280;19962;47.820;1.930;2023-11-21T05:48:24;100415.78;;;13.10;95.70
33625;BME280;19962;47.820;1.930;2023-11-21T05:50:51;100415.19;;;13.08;95.79
33625;BME280;19962;47.820;1.930;2023-11-21T05:53:17;100416.94;;;13.14;95.30
33625;BME280;19962;47.820;1.930;2023-11-21T05:55:43;100414.09;;;13.09;95.66
33625;BME280;19962;47.820;1.930;2023-11-21T05:58:09;100415.09;;;13.03;96.00
33625;BME280;19962;47.820;1.930;2023-11-21T06:00:36;100426.13;;;13.03;96.22
33625;BME280;19962;47.820;1.930;2023-11-21T06:03:02;100429.97;;;13.02;96.35
33625;BME280;19962;47.820;1.930;2023-11-21T06:05:29;100429.97;;;13.02;96.46
33625;BME280;19962;47.820;1.930;2023-11-21T06:07:57;100435.47;;;13.02;96.37
33625;BME280;19962;47.820;1.930;2023-11-21T06:10:27;100433.63;;;13.07;96.21
33625;BME280;19962;47.820;1.930;2023-11-21T06:12:54;100430.84;;;13.07;96.38
33625;BME280;19962;47.820;1.930;2023-11-21T06:15:20;100444.38;;;13.09;96.58
33625;BME280;19962;47.820;1.930;2023-11-21T06:17:48;100444.47;;;13.14;96.04
33625;BME280;19962;47.820;1.930;2023-11-21T06:20:21;100446.56;;;13.07;96.54
33625;BME280;19962;47.820;1.930;2023-11-21T06:22:49;100446.31;;;13.08;96.72
33625;BME280;19962;47.820;1.930;2023-11-21T06:25:16;100446.31;;;13.08;96.67
33625;BME280;19962;47.820;1.930;2023-11-21T06:27:45;100441.63;;;13.09;96.69
33625;BME280;19962;47.820;1.930;2023-11-21T06:30:12;100441.13;;;13.12;96.80
33625;BME280;19962;47.820;1.930;2023-11-21T06:32:39;100442.22;;;13.11;96.93
33625;BME280;19962;47.820;1.930;2023-11-21T06:35:07;100435.56;;;13.07;97.03
33625;BME280;19962;47.820;1.930;2023-11-21T06:37:34;100442.72;;;13.08;97.36
33625;BME280;19962;47.820;1.930;2023-11-21T06:40:00;100446.56;;;13.07;97.46
33625;BME280;19962;47.820;1.930;2023-11-21T06:42:27;100435.47;;;13.02;97.60
33625;BME280;19962;47.820;1.930;2023-11-21T06:44:55;100444.75;;;13.12;97.53
33625;BME280;19962;47.820;1.930;2023-11-21T06:47:25;100444.47;;;13.14;97.14
33625;BME280;19962;47.820;1.930;2023-11-21T06:49:52;100455.16;;;13.10;97.40
33625;BME280;19962;47.820;1.930;2023-11-21T06:52:18;100454.91;;;13.12;97.34
33625;BME280;19962;47.820;1.930;2023-11-21T06:54:45;100457.19;;;13.15;97.43
33625;BME280;19962;47.820;1.930;2023-11-21T06:57:11;100453.34;;;13.16;97.59
33625;BME280;19962;47.820;1.930;2023-11-21T06:59:37;100459.41;;;13.18;97.56
33625;BME280;19962;47.820;1.930;2023-11-21T07:02:05;100453.91;;;13.18;97.79
33625;BME280;19962;47.820;1.930;2023-11-21T07:04:32;100462.53;;;13.21;97.54
33625;BME280;19962;47.820;1.930;2023-11-21T07:06:59;100468.03;;;13.21;97.31
33625;BME280;19962;47.820;1.930;2023-11-21T07:09:25;100475.13;;;13.17;97.60
33625;BME280;19962;47.820;1.930;2023-11-21T07:11:52;100470.69;;;13.16;98.00
33625;BME280;19962;47.820;1.930;2023-11-21T07:14:18;100477.88;;;13.17;97.74
33625;BME280;19962;47.820;1.930;2023-11-21T07:16:46;100485.91;;;13.19;97.80
33625;BME280;19962;47.820;1.930;2023-11-21T07:19:12;100474.63;;;13.20;97.98
33625;BME280;19962;47.820;1.930;2023-11-21T07:21:39;100487.91;;;13.23;97.87
33625;BME280;19962;47.820;1.930;2023-11-21T07:24:07;100487.66;;;13.25;97.63
33625;BME280;19962;47.820;1.930;2023-11-21T07:26:34;100492.31;;;13.24;97.59
33625;BME280;19962;47.820;1.930;2023-11-21T07:29:01;100500.56;;;13.24;97.97
33625;BME280;19962;47.820;1.930;2023-11-21T07:31:28;100497.09;;;13.29;97.75
33625;BME280;19962;47.820;1.930;2023-11-21T07:33:55;100498.28;;;13.33;97.97
33625;BME280;19962;47.820;1.930;2023-11-21T07:36:24;100497.09;;;13.29;97.73
33625;BME280;19962;47.820;1.930;2023-11-21T07:38:51;100507.34;;;13.33;97.80
33625;BME280;19962;47.820;1.930;2023-11-21T07:41:18;100507.09;;;13.35;97.85
33625;BME280;19962;47.820;1.930;2023-11-21T07:43:45;100509.13;;;13.39;97.80
33625;BME280;19962;47.820;1.930;2023-11-21T07:46:12;100518.22;;;13.40;97.87
33625;BME280;19962;47.820;1.930;2023-11-21T07:48:39;100515.63;;;13.33;98.12
33625;BME280;19962;47.820;1.930;2023-11-21T07:51:06;100519.47;;;13.32;98.20
33625;BME280;19962;47.820;1.930;2023-11-21T07:53:35;100512.47;;;13.41;97.78
33625;BME280;19962;47.820;1.930;2023-11-21T07:56:05;100524.31;;;13.42;98.00
33625;BME280;19962;47.820;1.930;2023-11-21T07:58:32;100524.91;;;13.44;97.92
33625;BME280;19962;47.820;1.930;2023-11-21T08:01:00;100526.41;;;13.35;98.10
33625;BME280;19962;47.820;1.930;2023-11-21T08:03:26;100533.09;;;13.39;98.22
33625;BME280;19962;47.820;1.930;2023-11-21T08:05:59;100525.81;;;13.33;99.02
33625;BME280;19962;47.820;1.930;2023-11-21T08:08:25;100533.31;;;13.37;99.06
33625;BME280;19962;47.820;1.930;2023-11-21T08:10:52;100530.66;;;13.42;98.93
33625;BME280;19962;47.820;1.930;2023-11-21T08:13:27;100548.13;;;13.48;98.65
33625;BME280;19962;47.820;1.930;2023-11-21T08:15:57;100534.66;;;13.51;98.36
33625;BME280;19962;47.820;1.930;2023-11-21T08:18:31;100539.28;;;13.46;98.72
33625;BME280;19962;47.820;1.930;2023-11-21T08:20:57;100548.88;;;13.43;99.06
33625;BME280;19962;47.820;1.930;2023-11-21T08:23:23;100546.63;;;13.40;99.35
33625;BME280;19962;47.820;1.930;2023-11-21T08:25:53;100547.19;;;13.42;99.11
33625;BME280;19962;47.820;1.930;2023-11-21T08:28:19;100553.63;;;13.48;99.15
33625;BME280;19962;47.820;1.930;2023-11-21T08:30:48;100545.84;;;13.45;99.55
33625;BME280;19962;47.820;1.930;2023-11-21T08:33:14;100551.38;;;13.45;99.46
33625;BME280;19962;47.820;1.930;2023-11-21T08:35:40;100558.66;;;13.51;99.58
33625;BME280;19962;47.820;1.930;2023-11-21T08:38:09;100561.41;;;13.51;99.52
33625;BME280;19962;47.820;1.930;2023-11-21T08:40:36;100561.34;;;13.46;99.93
33625;BME280;19962;47.820;1.930;2023-11-21T08:43:02;100559.22;;;13.53;99.73
33625;BME280;19962;47.820;1.930;2023-11-21T08:45:30;100564.25;;;13.56;99.64
33625;BME280;19962;47.820;1.930;2023-11-21T08:47:57;100559.72;;;13.50;99.91
33625;BME280;19962;47.820;1.930;2023-11-21T08:50:23;100559.00;;;13.54;100.00
33625;BME280;19962;47.820;1.930;2023-11-21T08:52:49;100564.91;;;13.63;99.45
33625;BME280;19962;47.820;1.930;2023-11-21T08:55:15;100560.56;;;13.67;99.23
33625;BME280;19962;47.820;1.930;2023-11-21T08:57:44;100566.16;;;13.72;98.96
33625;BME280;19962;47.820;1.930;2023-11-21T09:00:10;100570.63;;;13.73;98.97
33625;BME280;19962;47.820;1.930;2023-11-21T09:02:40;100566.16;;;13.72;99.46
33625;BME280;19962;47.820;1.930;2023-11-21T09:05:13;100574.19;;;13.73;99.55
33625;BME280;19962;47.820;1.930;2023-11-21T09:07:41;100580.63;;;13.79;98.88
33625;BME280;19962;47.820;1.930;2023-11-21T09:10:08;100588.91;;;13.79;98.46
33625;BME280;19962;47.820;1.930;2023-11-21T09:12:35;100585.63;;;13.65;99.52
33625;BME280;19962;47.820;1.930;2023-11-21T09:15:04;100585.91;;;13.64;100.00
33625;BME280;19962;47.820;1.930;2023-11-21T09:17:34;100589.31;;;13.71;99.63
33625;BME280;19962;47.820;1.930;2023-11-21T09:20:00;100591.34;;;13.75;99.42
33625;BME280;19962;47.820;1.930;2023-11-21T09:22:26;100587.66;;;13.70;99.99
33625;BME280;19962;47.820;1.930;2023-11-21T09:24:53;100587.91;;;13.68;100.00
33625;BME280;19962;47.820;1.930;2023-11-21T09:27:20;100594.19;;;13.64;100.00
33625;BME280;19962;47.820;1.930;2023-11-21T09:29:47;100599.00;;;13.57;100.00
33625;BME280;19962;47.820;1.930;2023-11-21T09:32:15;100599.69;;;13.64;100.00
33625;BME280;19962;47.820;1.930;2023-11-21T09:34:44;100606.88;;;13.65;100.00
33625;BME280;19962;47.820;1.930;2023-11-21T09:37:11;100605.94;;;13.76;100.00
33625;BME280;19962;47.820;1.930;2023-11-21T09:39:37;100602.69;;;13.79;100.00
33625;BME280;19962;47.820;1.930;2023-11-21T09:42:15;100600.72;;;13.74;100.00
33625;BME280;19962;47.820;1.930;2023-11-21T09:45:28;100602.78;;;13.84;100.00
33625;BME280;19962;47.820;1.930;2023-11-21T09:47:38;100607.28;;;13.90;100.00
33625;BME280;19962;47.820;1.930;2023-11-21T09:50:05;100601.28;;;13.93;100.00
33625;BME280;19962;47.820;1.930;2023-11-21T09:52:44;100609.88;;;13.96;100.00
33625;BME280;19962;47.820;1.930;2023-11-21T09:55:15;100608.13;;;13.90;100.00
33625;BME280;19962;47.820;1.930;2023-11-21T09:57:45;100618.91;;;13.92;100.00
33625;BME280;19962;47.820;1.930;2023-11-21T10:00:12;100616.47;;;13.79;100.00
33625;BME280;19962;47.820;1.930;2023-11-21T10:02:39;100629.09;;;13.75;100.00
33625;BME280;19962;47.820;1.930;2023-11-21T10:05:06;100626.41;;;13.80;100.00
33625;BME280;19962;47.820;1.930;2023-11-21T10:07:35;100634.97;;;13.95;100.00
33625;BME280;19962;47.820;1.930;2023-11-21T10:10:03;100636.81;;;13.89;100.00
33625;BME280;19962;47.820;1.930;2023-11-21T10:12:31;100631.13;;;13.96;100.00
33625;BME280;19962;47.820;1.930;2023-11-21T10:14:58;100638.22;;;13.92;100.00
33625;BME280;19962;47.820;1.930;2023-11-21T10:17:26;100634.47;;;13.98;100.00
33625;BME280;19962;47.820;1.930;2023-11-21T10:19:56;100634.44;;;14.14;100.00
33625;BME280;19962;47.820;1.930;2023-11-21T10:22:23;100643.03;;;14.29;100.00
33625;BME280;19962;47.820;1.930;2023-11-21T10:24:50;100641.34;;;14.28;100.00
33625;BME280;19962;47.820;1.930;2023-11-21T10:27:16;100637.75;;;14.28;100.00
33625;BME280;19962;47.820;1.930;2023-11-21T10:29:42;100644.69;;;14.30;99.81
33625;BME280;19962;47.820;1.930;2023-11-21T10:32:08;100641.31;;;14.12;100.00
33625;BME280;19962;47.820;1.930;2023-11-21T10:34:35;100640.66;;;14.05;100.00
33625;BME280;19962;47.820;1.930;2023-11-21T10:37:11;100641.16;;;14.02;100.00
33625;BME280;19962;47.820;1.930;2023-11-21T10:39:39;100645.16;;;14.11;100.00
33625;BME280;19962;47.820;1.930;2023-11-21T10:42:08;100635.16;;;14.21;100.00
33625;BME280;19962;47.820;1.930;2023-11-21T10:44:36;100636.34;;;14.25;100.00
33625;BME280;19962;47.820;1.930;2023-11-21T10:47:02;100642.09;;;14.24;100.00
33625;BME280;19962;47.820;1.930;2023-11-21T10:49:28;100651.78;;;14.26;100.00
33625;BME280;19962;47.820;1.930;2023-11-21T10:51:55;100646.34;;;14.15;100.00
33625;BME280;19962;47.820;1.930;2023-11-21T10:54:22;100649.69;;;14.17;100.00
33625;BME280;19962;47.820;1.930;2023-11-21T10:56:50;100648.00;;;14.16;100.00
33625;BME280;19962;47.820;1.930;2023-11-21T10:59:19;100645.94;;;14.23;100.00
33625;BME280;19962;47.820;1.930;2023-11-21T11:01:47;100652.19;;;14.02;100.00
33625;BME280;19962;47.820;1.930;2023-11-21T11:04:19;100647.19;;;13.99;100.00
33625;BME280;19962;47.820;1.930;2023-11-21T11:06:49;100650.69;;;14.11;100.00
33625;BME280;19962;47.820;1.930;2023-11-21T11:09:17;100650.69;;;14.11;100.00
33625;BME280;19962;47.820;1.930;2023-11-21T11:11:44;100655.72;;;14.14;100.00
33625;BME280;19962;47.820;1.930;2023-11-21T11:14:12;100650.91;;;14.09;100.00
33625;BME280;19962;47.820;1.930;2023-11-21T11:16:39;100652.50;;;14.05;100.00
33625;BME280;19962;47.820;1.930;2023-11-21T11:19:09;100650.69;;;14.11;100.00
33625;BME280;19962;47.820;1.930;2023-11-21T11:27:54;100642.94;;;14.24;100.00
33625;BME280;19962;47.820;1.930;2023-11-21T11:33:48;100644.94;;;14.29;100.00
33625;BME280;19962;47.820;1.930;2023-11-21T11:36:35;100639.38;;;14.45;100.00
33625;BME280;19962;47.820;1.930;2023-11-21T11:39:03;100642.69;;;14.42;100.00
33625;BME280;19962;47.820;1.930;2023-11-21T11:41:31;100636.28;;;14.58;100.00
33625;BME280;19962;47.820;1.930;2023-11-21T11:44:01;100640.72;;;14.59;99.97
33625;BME280;19962;47.820;1.930;2023-11-21T11:46:44;100638.41;;;14.51;99.74
33625;BME280;19962;47.820;1.930;2023-11-21T11:49:28;100644.44;;;14.32;100.00
33625;BME280;19962;47.820;1.930;2023-11-21T11:52:31;100652.03;;;14.25;100.00
33625;BME280;19962;47.820;1.930;2023-11-21T11:54:59;100653.88;;;14.36;100.00
33625;BME280;19962;47.820;1.930;2023-11-21T11:57:25;100642.56;;;14.54;100.00
33625;BME280;19962;47.820;1.930;2023-11-21T12:00:14;100642.63;;;14.59;99.64
33625;BME280;19962;47.820;1.930;2023-11-21T12:02:48;100646.94;;;14.50;98.53
33625;BME280;19962;47.820;1.930;2023-11-21T12:05:20;100640.22;;;14.46;98.64
33625;BME280;19962;47.820;1.930;2023-11-21T12:08:06;100644.56;;;14.58;98.38
33625;BME280;19962;47.820;1.930;2023-11-21T12:10:37;100638.78;;;14.60;98.54
33625;BME280;19962;47.820;1.930;2023-11-21T12:13:09;100643.38;;;14.71;97.93
33625;BME280;19962;47.820;1.930;2023-11-21T12:15:36;100642.50;;;14.49;97.95
33625;BME280;19962;47.820;1.930;2023-11-21T12:18:03;100636.44;;;14.68;97.87
33625;BME280;19962;47.820;1.930;2023-11-21T12:20:30;100645.50;;;14.85;96.86
33625;BME280;19962;47.820;1.930;2023-11-21T12:22:58;100643.06;;;14.89;96.24
33625;BME280;19962;47.820;1.930;2023-11-21T12:25:31;100635.34;;;14.91;95.26
33625;BME280;19962;47.820;1.930;2023-11-21T12:28:02;100635.84;;;14.88;95.64
33625;BME280;19962;47.820;1.930;2023-11-21T12:30:30;100631.19;;;14.88;95.34
33625;BME280;19962;47.820;1.930;2023-11-21T12:32:59;100637.72;;;14.82;95.55
33625;BME280;19962;47.820;1.930;2023-11-21T12:35:26;100635.53;;;14.84;95.19
33625;BME280;19962;47.820;1.930;2023-11-21T12:37:56;100638.66;;;14.71;95.53
33625;BME280;19962;47.820;1.930;2023-11-21T12:40:26;100647.31;;;14.75;95.37
33625;BME280;19962;47.820;1.930;2023-11-21T12:42:55;100648.59;;;14.89;94.99
33625;BME280;19962;47.820;1.930;2023-11-21T12:45:26;100643.81;;;14.63;95.50
33625;BME280;19962;47.820;1.930;2023-11-21T12:47:57;100645.97;;;14.61;95.18
33625;BME280;19962;47.820;1.930;2023-11-21T12:50:27;100657.13;;;14.66;94.72
33625;BME280;19962;47.820;1.930;2023-11-21T12:53:08;100661.00;;;14.70;94.98
33625;BME280;19962;47.820;1.930;2023-11-21T12:55:36;100665.00;;;14.79;94.25
33625;BME280;19962;47.820;1.930;2023-11-21T12:58:06;100665.53;;;14.76;94.00
33625;BME280;19962;47.820;1.930;2023-11-21T13:00:42;100667.00;;;14.62;95.04